sensor_id;sensor_type;location;lat;lon;timestamp;P1;P2;P0
74428;PMS5003;62860;52.134;23.714;2022-12-18T00:04:25;10.2;7.6;6.8
74428;PMS5003;62860;52.134;23.714;2022-12-18T00:10:06;6.8;5.6;4.8
74428;PMS5003;62860;52.134;23.714;2022-12-18T00:14:56;7.8;5.4;4.2
74428;PMS5003;62860;52.134;23.714;2022-12-18T00:19:44;8.6;6.6;5.6
74428;PMS5003;62860;52.134;23.714;2022-12-18T00:24:34;5;4;3.2
74428;PMS5003;62860;52.134;23.714;2022-12-18T00:29:24;6.6;4.6;3.8
74428;PMS5003;62860;52.134;23.714;2022-12-18T00:35:05;7.4;4.6;3.6
74428;PMS5003;62860;52.134;23.714;2022-12-18T00:39:24;6.6;4.6;4.4
74428;PMS5003;62860;52.134;23.714;2022-12-18T00:44:24;6.8;5;4.3
74428;PMS5003;62860;52.134;23.714;2022-12-18T00:50:05;8.6;7.6;5.4
74428;PMS5003;62860;52.134;23.714;2022-12-18T00:54:42;6.8;5.4;4.4
74428;PMS5003;62860;52.134;23.714;2022-12-18T01:00:07;5;4.8;3.8
74428;PMS5003;62860;52.134;23.714;2022-12-18T01:05:04;8.4;7;5.2
74428;PMS5003;62860;52.134;23.714;2022-12-18T01:09:54;7.8;7;5.2
74428;PMS5003;62860;52.134;23.714;2022-12-18T01:14:44;8.2;6.2;5.2
74428;PMS5003;62860;52.134;23.714;2022-12-18T01:19:50;7;4.6;3.6
74428;PMS5003;62860;52.134;23.714;2022-12-18T01:25:08;8;6.8;5.4
74428;PMS5003;62860;52.134;23.714;2022-12-18T01:29:36;7.8;7.8;6.8
74428;PMS5003;62860;52.134;23.714;2022-12-18T01:34:48;7.8;6;4.2
74428;PMS5003;62860;52.134;23.714;2022-12-18T01:40:09;4.8;3.2;3
74428;PMS5003;62860;52.134;23.714;2022-12-18T01:44:53;4.8;4.8;3.6
74428;PMS5003;62860;52.134;23.714;2022-12-18T01:50:09;9.4;5;3.2
74428;PMS5003;62860;52.134;23.714;2022-12-18T01:54:27;5.4;5.4;3.2
74428;PMS5003;62860;52.134;23.714;2022-12-18T01:59:59;8.2;5.6;4.6
74428;PMS5003;62860;52.134;23.714;2022-12-18T02:04:35;7.6;5;4.2
74428;PMS5003;62860;52.134;23.714;2022-12-18T02:09:49;6;4.6;3.2
74428;PMS5003;62860;52.134;23.714;2022-12-18T02:15:12;7;6.4;5.2
74428;PMS5003;62860;52.134;23.714;2022-12-18T02:19:39;7;6.4;5.2
74428;PMS5003;62860;52.134;23.714;2022-12-18T02:24:28;7.4;3.8;2.8
74428;PMS5003;62860;52.134;23.714;2022-12-18T02:29:25;4.6;3.2;1.8
74428;PMS5003;62860;52.134;23.714;2022-12-18T02:34:26;7.4;3.6;3
74428;PMS5003;62860;52.134;23.714;2022-12-18T02:39:59;6.2;5;4
74428;PMS5003;62860;52.134;23.714;2022-12-18T02:44:58;4.8;2.4;1.8
74428;PMS5003;62860;52.134;23.714;2022-12-18T02:49:49;6.2;5.2;4.2
74428;PMS5003;62860;52.134;23.714;2022-12-18T02:54:39;5.6;5;3
74428;PMS5003;62860;52.134;23.714;2022-12-18T02:59:25;4.8;3.8;3
74428;PMS5003;62860;52.134;23.714;2022-12-18T03:04:58;6.2;5;2.6
74428;PMS5003;62860;52.134;23.714;2022-12-18T03:09:25;6.8;4.4;3.6
74428;PMS5003;62860;52.134;23.714;2022-12-18T03:14:36;5.4;4.8;2.8
74428;PMS5003;62860;52.134;23.714;2022-12-18T03:19:46;7.2;4.4;3.8
74428;PMS5003;62860;52.134;23.714;2022-12-18T03:24:36;5.4;3.6;3.2
74428;PMS5003;62860;52.134;23.714;2022-12-18T03:30:09;9.2;7;5.2
74428;PMS5003;62860;52.134;23.714;2022-12-18T03:35:09;8.8;7;5.4
74428;PMS5003;62860;52.134;23.714;2022-12-18T03:40:00;7.4;6.4;4.6
74428;PMS5003;62860;52.134;23.714;2022-12-18T03:44:26;8.8;6.2;3.8
74428;PMS5003;62860;52.134;23.714;2022-12-18T03:49:50;7.6;5.2;4
74428;PMS5003;62860;52.134;23.714;2022-12-18T03:55:08;6;5.6;3.8
74428;PMS5003;62860;52.134;23.714;2022-12-18T03:59:36;6.2;5.4;4.4
74428;PMS5003;62860;52.134;23.714;2022-12-18T04:04:46;8.2;5.4;4
74428;PMS5003;62860;52.134;23.714;2022-12-18T04:09:24;7.6;5.4;3.2
74428;PMS5003;62860;52.134;23.714;2022-12-18T04:15:11;5.2;3.2;2.4
74428;PMS5003;62860;52.134;23.714;2022-12-18T04:20:10;10.2;6.8;4.4
74428;PMS5003;62860;52.134;23.714;2022-12-18T04:25:00;10.2;6.8;4.4
74428;PMS5003;62860;52.134;23.714;2022-12-18T04:30:00;7;5.2;3.4
74428;PMS5003;62860;52.134;23.714;2022-12-18T04:34:48;9.4;6.4;4.6
74428;PMS5003;62860;52.134;23.714;2022-12-18T04:40:11;6.8;5.6;4.6
74428;PMS5003;62860;52.134;23.714;2022-12-18T04:45:08;6.8;5.6;4.6
74428;PMS5003;62860;52.134;23.714;2022-12-18T04:49:24;6.2;3;2.2
74428;PMS5003;62860;52.134;23.714;2022-12-18T04:54:48;6.4;5;3
74428;PMS5003;62860;52.134;23.714;2022-12-18T04:59:24;5.8;4.2;3.6
74428;PMS5003;62860;52.134;23.714;2022-12-18T05:05:10;6;5.2;3.2
74428;PMS5003;62860;52.134;23.714;2022-12-18T05:10:09;6;5.2;3.2
74428;PMS5003;62860;52.134;23.714;2022-12-18T05:15:00;5.8;5.4;3.8
74428;PMS5003;62860;52.134;23.714;2022-12-18T05:19:58;8.6;5;3.4
74428;PMS5003;62860;52.134;23.714;2022-12-18T05:24:36;5.4;4.6;3.2
74428;PMS5003;62860;52.134;23.714;2022-12-18T05:29:56;5.6;4.4;3.2
74428;PMS5003;62860;52.134;23.714;2022-12-18T05:35:10;5.2;3.6;3.2
74428;PMS5003;62860;52.134;23.714;2022-12-18T05:39:30;5.2;3.6;3.2
74428;PMS5003;62860;52.134;23.714;2022-12-18T05:44:46;5.6;4.8;4.2
74428;PMS5003;62860;52.134;23.714;2022-12-18T05:49:36;5;3.8;2.4
74428;PMS5003;62860;52.134;23.714;2022-12-18T05:55:10;7.8;5;3
74428;PMS5003;62860;52.134;23.714;2022-12-18T06:00:11;4.8;3;2.6
74428;PMS5003;62860;52.134;23.714;2022-12-18T06:05:00;4.8;3;2.6
74428;PMS5003;62860;52.134;23.714;2022-12-18T06:10:00;7.6;4.8;3
74428;PMS5003;62860;52.134;23.714;2022-12-18T06:14:36;8;6.2;4.4
74428;PMS5003;62860;52.134;23.714;2022-12-18T06:20:08;5.4;4.6;3.4
74428;PMS5003;62860;52.134;23.714;2022-12-18T06:25:10;6;4.8;3.4
74428;PMS5003;62860;52.134;23.714;2022-12-18T06:29:30;6;4.8;3.4
74428;PMS5003;62860;52.134;23.714;2022-12-18T06:34:37;5.2;4.8;3.2
74428;PMS5003;62860;52.134;23.714;2022-12-18T06:39:24;9.6;6.2;3.8
74428;PMS5003;62860;52.134;23.714;2022-12-18T06:45:10;7.8;6;4.6
74428;PMS5003;62860;52.134;23.714;2022-12-18T06:50:11;4.8;3.6;2.8
74428;PMS5003;62860;52.134;23.714;2022-12-18T06:55:00;4.8;3.6;2.8
74428;PMS5003;62860;52.134;23.714;2022-12-18T06:59:48;6.6;4.4;3.4
74428;PMS5003;62860;52.134;23.714;2022-12-18T07:04:27;8.6;4.6;3.8
74428;PMS5003;62860;52.134;23.714;2022-12-18T07:10:11;3.6;2.8;2.2
74428;PMS5003;62860;52.134;23.714;2022-12-18T07:15:10;6;5.6;4.6
74428;PMS5003;62860;52.134;23.714;2022-12-18T07:19:36;6;5.6;4.6
74428;PMS5003;62860;52.134;23.714;2022-12-18T07:25:00;10;5.6;4.2
74428;PMS5003;62860;52.134;23.714;2022-12-18T07:29:48;9.6;7.4;5.6
74428;PMS5003;62860;52.134;23.714;2022-12-18T07:34:58;6.6;4.2;3.2
74428;PMS5003;62860;52.134;23.714;2022-12-18T07:40:11;6;4.2;3.6
74428;PMS5003;62860;52.134;23.714;2022-12-18T07:44:48;6;4.2;3.6
74428;PMS5003;62860;52.134;23.714;2022-12-18T07:49:58;5;4;2.8
74428;PMS5003;62860;52.134;23.714;2022-12-18T07:54:24;5.4;4;2.2
74428;PMS5003;62860;52.134;23.714;2022-12-18T08:00:09;4.4;4.2;2.8
74428;PMS5003;62860;52.134;23.714;2022-12-18T08:04:56;7.8;7;4.4
74428;PMS5003;62860;52.134;23.714;2022-12-18T08:09:24;7.8;4;2.6
74428;PMS5003;62860;52.134;23.714;2022-12-18T08:14:34;6.4;4.8;3.4
74428;PMS5003;62860;52.134;23.714;2022-12-18T08:19:35;7.4;4.8;3.2
74428;PMS5003;62860;52.134;23.714;2022-12-18T08:25:09;10;6.6;5
74428;PMS5003;62860;52.134;23.714;2022-12-18T08:30:09;7.6;5.4;3.6
74428;PMS5003;62860;52.134;23.714;2022-12-18T08:35:00;5.8;4.6;4
74428;PMS5003;62860;52.134;23.714;2022-12-18T08:39:48;5.4;5.2;3.8
74428;PMS5003;62860;52.134;23.714;2022-12-18T08:44:38;3.6;2.8;1.6
74428;PMS5003;62860;52.134;23.714;2022-12-18T08:49:58;7.8;5.2;2.8
74428;PMS5003;62860;52.134;23.714;2022-12-18T08:54:58;6;3.8;3.2
74428;PMS5003;62860;52.134;23.714;2022-12-18T08:59:36;4.8;3.4;2.6
74428;PMS5003;62860;52.134;23.714;2022-12-18T09:04:46;6.6;4.4;3.2
74428;PMS5003;62860;52.134;23.714;2022-12-18T09:10:10;4.2;2.8;2.6
74428;PMS5003;62860;52.134;23.714;2022-12-18T09:15:10;6.2;3.6;2.8
74428;PMS5003;62860;52.134;23.714;2022-12-18T09:19:36;6.2;3.6;2.8
74428;PMS5003;62860;52.134;23.714;2022-12-18T09:24:58;7.8;4.8;4
74428;PMS5003;62860;52.134;23.714;2022-12-18T09:29:36;5.2;4.4;3.4
74428;PMS5003;62860;52.134;23.714;2022-12-18T09:34:24;6.8;4;3.4
74428;PMS5003;62860;52.134;23.714;2022-12-18T09:39:58;7.6;5.6;4.4
74428;PMS5003;62860;52.134;23.714;2022-12-18T09:44:57;5.6;4.6;3
74428;PMS5003;62860;52.134;23.714;2022-12-18T09:49:37;7.6;5.2;4
74428;PMS5003;62860;52.134;23.714;2022-12-18T09:54:35;6.2;4.4;4.4
74428;PMS5003;62860;52.134;23.714;2022-12-18T10:00:09;5;4.2;3.6
74428;PMS5003;62860;52.134;23.714;2022-12-18T10:05:07;12.8;11;8.4
74428;PMS5003;62860;52.134;23.714;2022-12-18T10:09:37;6.2;5.6;5
74428;PMS5003;62860;52.134;23.714;2022-12-18T10:15:00;6.4;5;3.4
74428;PMS5003;62860;52.134;23.714;2022-12-18T10:19:47;4.4;3.8;2.8
74428;PMS5003;62860;52.134;23.714;2022-12-18T10:24:26;6.4;5;4.4
74428;PMS5003;62860;52.134;23.714;2022-12-18T10:29:58;5;4.6;3.2
74428;PMS5003;62860;52.134;23.714;2022-12-18T10:34:58;4.4;4.4;2.8
74428;PMS5003;62860;52.134;23.714;2022-12-18T10:40:07;7;5.8;4
74428;PMS5003;62860;52.134;23.714;2022-12-18T10:44:46;6.2;4.4;3.2
74428;PMS5003;62860;52.134;23.714;2022-12-18T10:50:10;7.6;6;4.8
74428;PMS5003;62860;52.134;23.714;2022-12-18T10:55:12;6.8;5.8;4.8
74428;PMS5003;62860;52.134;23.714;2022-12-18T10:59:35;9.8;8.8;6
74428;PMS5003;62860;52.134;23.714;2022-12-18T11:04:56;7.8;6;4.8
74428;PMS5003;62860;52.134;23.714;2022-12-18T11:09:45;8.2;6.4;4.4
74428;PMS5003;62860;52.134;23.714;2022-12-18T11:14:25;8.5;6.5;5.3
74428;PMS5003;62860;52.134;23.714;2022-12-18T11:19:57;13.6;11;8.2
74428;PMS5003;62860;52.134;23.714;2022-12-18T11:24:57;10.4;7;5.8
74428;PMS5003;62860;52.134;23.714;2022-12-18T11:29:27;10;7;5.6
74428;PMS5003;62860;52.134;23.714;2022-12-18T11:34:48;8.2;6.4;5
74428;PMS5003;62860;52.134;23.714;2022-12-18T11:40:10;7;5.4;4.6
74428;PMS5003;62860;52.134;23.714;2022-12-18T11:45:27;9.2;8.2;6.4
74428;PMS5003;62860;52.134;23.714;2022-12-18T11:49:36;9.2;8.2;6.4
74428;PMS5003;62860;52.134;23.714;2022-12-18T11:55:01;6.8;5.4;3.8
74428;PMS5003;62860;52.134;23.714;2022-12-18T11:59:27;6.2;5;3.4
74428;PMS5003;62860;52.134;23.714;2022-12-18T12:04:40;8.6;5.8;4.4
74428;PMS5003;62860;52.134;23.714;2022-12-18T12:10:03;9;7;5.4
74428;PMS5003;62860;52.134;23.714;2022-12-18T12:15:02;10.8;8.4;6.2
74428;PMS5003;62860;52.134;23.714;2022-12-18T12:19:29;8.2;6.2;4.8
74428;PMS5003;62860;52.134;23.714;2022-12-18T12:24:49;11.8;9;6.8
74428;PMS5003;62860;52.134;23.714;2022-12-18T12:30:09;9.2;6;5
74428;PMS5003;62860;52.134;23.714;2022-12-18T12:35:13;11.4;9;6.6
74428;PMS5003;62860;52.134;23.714;2022-12-18T12:39:26;11.4;9;6.6
74428;PMS5003;62860;52.134;23.714;2022-12-18T12:44:59;7.2;7;5.2
74428;PMS5003;62860;52.134;23.714;2022-12-18T12:50:02;12.2;9;5.8
74428;PMS5003;62860;52.134;23.714;2022-12-18T12:54:39;10;8.2;6.6
74428;PMS5003;62860;52.134;23.714;2022-12-18T13:00:02;9.8;8;5.8
74428;PMS5003;62860;52.134;23.714;2022-12-18T13:05:14;11.4;9;5.8
74428;PMS5003;62860;52.134;23.714;2022-12-18T13:10:24;11.4;9;5.8
74428;PMS5003;62860;52.134;23.714;2022-12-18T13:14:49;7.8;6.6;5.6
74428;PMS5003;62860;52.134;23.714;2022-12-18T13:19:48;9.4;7.8;6.4
74428;PMS5003;62860;52.134;23.714;2022-12-18T13:24:59;9;8.4;6.4
74428;PMS5003;62860;52.134;23.714;2022-12-18T13:29:40;7.8;6.2;4.8
74428;PMS5003;62860;52.134;23.714;2022-12-18T13:34:47;12;9;7
74428;PMS5003;62860;52.134;23.714;2022-12-18T13:39:31;10.8;8.6;6.4
74428;PMS5003;62860;52.134;23.714;2022-12-18T13:44:25;9;5.2;4.6
74428;PMS5003;62860;52.134;23.714;2022-12-18T13:50:09;6.6;6.6;5.4
74428;PMS5003;62860;52.134;23.714;2022-12-18T13:55:14;12.2;9.4;6.6
74428;PMS5003;62860;52.134;23.714;2022-12-18T13:59:47;10;7;5.2
74428;PMS5003;62860;52.134;23.714;2022-12-18T14:04:47;10.2;8.6;5.6
74428;PMS5003;62860;52.134;23.714;2022-12-18T14:10:01;6.6;5.2;4.6
74428;PMS5003;62860;52.134;23.714;2022-12-18T14:14:59;6.6;6.6;5.4
74428;PMS5003;62860;52.134;23.714;2022-12-18T14:19:35;7.2;5;3.4
74428;PMS5003;62860;52.134;23.714;2022-12-18T14:24:25;8.4;6.2;4.8
74428;PMS5003;62860;52.134;23.714;2022-12-18T14:29:35;10;9;7.6
74428;PMS5003;62860;52.134;23.714;2022-12-18T14:34:25;8;6.8;5.6
74428;PMS5003;62860;52.134;23.714;2022-12-18T14:40:11;9.6;7;5.2
74428;PMS5003;62860;52.134;23.714;2022-12-18T14:46:01;9.6;7;5.2
74428;PMS5003;62860;52.134;23.714;2022-12-18T14:49:35;8.8;7.6;6
74428;PMS5003;62860;52.134;23.714;2022-12-18T14:54:47;6.6;5.4;4
74428;PMS5003;62860;52.134;23.714;2022-12-18T15:00:03;8;6.8;5.4
74428;PMS5003;62860;52.134;23.714;2022-12-18T15:05:01;8.4;6.4;4.6
74428;PMS5003;62860;52.134;23.714;2022-12-18T15:09:37;8.8;6.6;4.8
74428;PMS5003;62860;52.134;23.714;2022-12-18T15:14:38;13.8;12;9.8
74428;PMS5003;62860;52.134;23.714;2022-12-18T15:19:49;13;10.8;7.4
74428;PMS5003;62860;52.134;23.714;2022-12-18T15:24:26;9;8.2;6
74428;PMS5003;62860;52.134;23.714;2022-12-18T15:30:16;7;5.4;4.6
74428;PMS5003;62860;52.134;23.714;2022-12-18T15:35:11;10.2;6.8;3.8
74428;PMS5003;62860;52.134;23.714;2022-12-18T15:39:25;7.8;5.6;5.2
74428;PMS5003;62860;52.134;23.714;2022-12-18T15:44:47;7;5.4;3.8
74428;PMS5003;62860;52.134;23.714;2022-12-18T15:50:01;5.6;3.6;2.8
74428;PMS5003;62860;52.134;23.714;2022-12-18T15:55:01;8.4;4.4;4
74428;PMS5003;62860;52.134;23.714;2022-12-18T15:59:37;4.6;4;3.4
74428;PMS5003;62860;52.134;23.714;2022-12-18T16:04:49;13;8.2;5
74428;PMS5003;62860;52.134;23.714;2022-12-18T16:09:25;11.6;10.2;7
74428;PMS5003;62860;52.134;23.714;2022-12-18T16:14:49;9.8;7.6;6.4
74428;PMS5003;62860;52.134;23.714;2022-12-18T16:20:11;9.4;7.2;6.2
74428;PMS5003;62860;52.134;23.714;2022-12-18T16:25:15;16;14.3;9.5
74428;PMS5003;62860;52.134;23.714;2022-12-18T16:29:47;16;14.3;9.5
74428;PMS5003;62860;52.134;23.714;2022-12-18T16:34:49;11;9.4;7.2
74428;PMS5003;62860;52.134;23.714;2022-12-18T16:39:51;10.8;8.8;7.4
74428;PMS5003;62860;52.134;23.714;2022-12-18T16:45:01;12.4;8.8;6.6
74428;PMS5003;62860;52.134;23.714;2022-12-18T16:49:37;10.4;8.6;6.4
74428;PMS5003;62860;52.134;23.714;2022-12-18T16:54:47;10;8;6.6
74428;PMS5003;62860;52.134;23.714;2022-12-18T16:59:49;9.2;8;6.6
74428;PMS5003;62860;52.134;23.714;2022-12-18T17:04:37;10.4;6.8;4.4
74428;PMS5003;62860;52.134;23.714;2022-12-18T17:10:09;7.8;5.8;4.8
74428;PMS5003;62860;52.134;23.714;2022-12-18T17:15:11;9.4;7.6;6
74428;PMS5003;62860;52.134;23.714;2022-12-18T17:19:47;9.4;7.6;6
74428;PMS5003;62860;52.134;23.714;2022-12-18T17:24:45;10.4;5.8;4.4
74428;PMS5003;62860;52.134;23.714;2022-12-18T17:29:59;11;8.2;5.6
74428;PMS5003;62860;52.134;23.714;2022-12-18T17:35:01;13.6;8.6;6.6
74428;PMS5003;62860;52.134;23.714;2022-12-18T17:39:39;11.8;8.8;7.6
74428;PMS5003;62860;52.134;23.714;2022-12-18T17:45:01;9;7;5.4
74428;PMS5003;62860;52.134;23.714;2022-12-18T17:50:01;11.2;8.8;5.4
74428;PMS5003;62860;52.134;23.714;2022-12-18T17:54:47;10.4;8;5.6
74428;PMS5003;62860;52.134;23.714;2022-12-18T18:00:11;13.4;9;6.4
74428;PMS5003;62860;52.134;23.714;2022-12-18T18:04:47;13.4;9;6.4
74428;PMS5003;62860;52.134;23.714;2022-12-18T18:09:49;11.6;8.6;6.8
74428;PMS5003;62860;52.134;23.714;2022-12-18T18:14:37;11.4;10.4;7.6
74428;PMS5003;62860;52.134;23.714;2022-12-18T18:20:01;10.6;9.4;7
74428;PMS5003;62860;52.134;23.714;2022-12-18T18:25:09;12;9.4;7.4
74428;PMS5003;62860;52.134;23.714;2022-12-18T18:29:25;8.6;5.6;5
74428;PMS5003;62860;52.134;23.714;2022-12-18T18:34:59;12;7.8;4.2
74428;PMS5003;62860;52.134;23.714;2022-12-18T18:39:51;9.6;7.8;3.8
74428;PMS5003;62860;52.134;23.714;2022-12-18T18:44:25;11;8;6.8
74428;PMS5003;62860;52.134;23.714;2022-12-18T18:50:11;8;6.4;5.6
74428;PMS5003;62860;52.134;23.714;2022-12-18T18:54:25;8;6.4;5.6
74428;PMS5003;62860;52.134;23.714;2022-12-18T18:59:47;8;5.4;4.4
74428;PMS5003;62860;52.134;23.714;2022-12-18T19:04:25;12;10.2;8.8
74428;PMS5003;62860;52.134;23.714;2022-12-18T19:10:01;8;7;5.2
74428;PMS5003;62860;52.134;23.714;2022-12-18T19:15:09;12;8.8;6
74428;PMS5003;62860;52.134;23.714;2022-12-18T19:19:47;10.8;7.6;5.6
74428;PMS5003;62860;52.134;23.714;2022-12-18T19:25:01;14.6;11.8;9
74428;PMS5003;62860;52.134;23.714;2022-12-18T19:30:01;11.6;10.4;7.8
74428;PMS5003;62860;52.134;23.714;2022-12-18T19:34:49;11.2;10.8;8.4
74428;PMS5003;62860;52.134;23.714;2022-12-18T19:39:59;13.2;10.8;8.4
74428;PMS5003;62860;52.134;23.714;2022-12-18T19:44:49;12.2;10.2;8.6
74428;PMS5003;62860;52.134;23.714;2022-12-18T19:49:47;15.6;11.4;8.6
74428;PMS5003;62860;52.134;23.714;2022-12-18T19:54:37;13.2;10.8;8.4
74428;PMS5003;62860;52.134;23.714;2022-12-18T20:00:01;13.8;10.6;6.8
74428;PMS5003;62860;52.134;23.714;2022-12-18T20:05:10;12.2;10.8;8
74428;PMS5003;62860;52.134;23.714;2022-12-18T20:09:49;14.2;11.6;9
74428;PMS5003;62860;52.134;23.714;2022-12-18T20:15:01;20.4;16.4;13
74428;PMS5003;62860;52.134;23.714;2022-12-18T20:20:02;18.8;13;9.4
74428;PMS5003;62860;52.134;23.714;2022-12-18T20:24:37;17.2;15.4;12
74428;PMS5003;62860;52.134;23.714;2022-12-18T20:30:11;11.6;8.8;6.4
74428;PMS5003;62860;52.134;23.714;2022-12-18T20:34:37;11.6;8.8;6.4
74428;PMS5003;62860;52.134;23.714;2022-12-18T20:39:35;18.8;17.2;13
74428;PMS5003;62860;52.134;23.714;2022-12-18T20:44:37;21.4;19.2;13.8
74428;PMS5003;62860;52.134;23.714;2022-12-18T20:50:01;19;14.6;12.2
74428;PMS5003;62860;52.134;23.714;2022-12-18T20:55:11;28.2;22.4;17.2
74428;PMS5003;62860;52.134;23.714;2022-12-18T20:59:25;28.2;22.4;17.2
74428;PMS5003;62860;52.134;23.714;2022-12-18T21:04:59;27.5;25.3;17.8
74428;PMS5003;62860;52.134;23.714;2022-12-18T21:10:03;37;28;19.4
74428;PMS5003;62860;52.134;23.714;2022-12-18T21:14:37;35.6;27.2;18.6
74428;PMS5003;62860;52.134;23.714;2022-12-18T21:20:09;30.2;26.8;18.2
74428;PMS5003;62860;52.134;23.714;2022-12-18T21:24:25;36.2;27.6;21.8
74428;PMS5003;62860;52.134;23.714;2022-12-18T21:29:49;27.8;21.4;17.2
74428;PMS5003;62860;52.134;23.714;2022-12-18T21:34:26;30.2;24.2;17.6
74428;PMS5003;62860;52.134;23.714;2022-12-18T21:40:01;23.4;19.8;14.8
74428;PMS5003;62860;52.134;23.714;2022-12-18T21:45:09;18.2;13.6;9.8
74428;PMS5003;62860;52.134;23.714;2022-12-18T21:49:35;20.2;15.4;10.8
74428;PMS5003;62860;52.134;23.714;2022-12-18T21:54:57;16.8;13.8;11
74428;PMS5003;62860;52.134;23.714;2022-12-18T21:59:57;23.4;18.2;12.6
74428;PMS5003;62860;52.134;23.714;2022-12-18T22:04:47;23.4;18.6;12.6
74428;PMS5003;62860;52.134;23.714;2022-12-18T22:10:07;23.6;19.6;14.6
74428;PMS5003;62860;52.134;23.714;2022-12-18T22:14:45;20.2;16.2;12.2
74428;PMS5003;62860;52.134;23.714;2022-12-18T22:19:45;24.8;17.6;10.6
74428;PMS5003;62860;52.134;23.714;2022-12-18T22:24:33;29.2;21;14.4
74428;PMS5003;62860;52.134;23.714;2022-12-18T22:30:05;22.2;18;12
74428;PMS5003;62860;52.134;23.714;2022-12-18T22:35:03;23.4;17.4;14.6
74428;PMS5003;62860;52.134;23.714;2022-12-18T22:39:26;23.2;20;14.8
74428;PMS5003;62860;52.134;23.714;2022-12-18T22:44:57;27.8;23.4;15.4
74428;PMS5003;62860;52.134;23.714;2022-12-18T22:49:53;28.8;21.2;13
74428;PMS5003;62860;52.134;23.714;2022-12-18T22:54:53;31;26;18.6
74428;PMS5003;62860;52.134;23.714;2022-12-18T23:00:03;24;18.6;14
74428;PMS5003;62860;52.134;23.714;2022-12-18T23:04:41;26.2;21.8;16.2
74428;PMS5003;62860;52.134;23.714;2022-12-18T23:09:43;31.4;23.2;17.4
74428;PMS5003;62860;52.134;23.714;2022-12-18T23:14:25;25.4;20.6;14.8
74428;PMS5003;62860;52.134;23.714;2022-12-18T23:20:05;25.6;19.6;14.4
74428;PMS5003;62860;52.134;23.714;2022-12-18T23:25:07;27.6;20.8;13.2
74428;PMS5003;62860;52.134;23.714;2022-12-18T23:29:25;17.8;14.6;10.8
74428;PMS5003;62860;52.134;23.714;2022-12-18T23:34:55;16.6;10.6;7.8
74428;PMS5003;62860;52.134;23.714;2022-12-18T23:39:55;20;11.6;9.8
74428;PMS5003;62860;52.134;23.714;2022-12-18T23:45:05;14.6;11.4;8.8
74428;PMS5003;62860;52.134;23.714;2022-12-18T23:49:57;18;12.4;7.8
74428;PMS5003;62860;52.134;23.714;2022-12-18T23:54:57;17.8;12.8;9
74428;PMS5003;62860;52.134;23.714;2022-12-18T23:59:35;17;13.6;11
